Time;durP1;ratioP1;P1;durP2;ratioP2;P2;SDS_P1;SDS_P2;PMS_P1;PMS_P2;Temp;Humidity;BMP_temperature;BMP_pressure;BME280_temperature;BME280_humidity;BME280_pressure;Samples;Min_cycle;Max_cycle;Signal;HPM_P1;HPM_P2
2022/09/11 00:01:39;;;;;;;31.88;14.82;;;;;;;9.08;61.29;100334.09;6251345;23;20337;-85
2022/09/11 00:04:09;;;;;;;40.08;16.85;;;;;;;9.08;61.56;100339.56;6248027;23;20318;-85
2022/09/11 00:06:36;;;;;;;28.77;14.02;;;;;;;9.00;60.65;100326.47;6249373;22;20315;-85
2022/09/11 00:09:06;;;;;;;45.88;14.80;;;;;;;9.01;60.54;100334.41;6224613;23;20015;-85
2022/09/11 00:11:42;;;;;;;33.75;13.93;;;;;;;8.86;62.21;100324.34;6248094;23;20330;-85
2022/09/11 00:14:14;;;;;;;30.70;13.55;;;;;;;8.78;62.45;100322.19;6252522;23;20319;-85
2022/09/11 00:16:43;;;;;;;30.45;13.77;;;;;;;8.81;61.56;100329.00;6252719;22;20342;-85
2022/09/11 00:19:18;;;;;;;28.33;15.25;;;;;;;8.84;62.51;100333.88;6248868;23;20369;-85
2022/09/11 00:21:46;;;;;;;33.15;15.02;;;;;;;8.87;62.99;100349.69;6248650;22;20449;-84
2022/09/11 00:24:13;;;;;;;33.45;14.18;;;;;;;8.83;62.20;100345.88;6248101;23;20349;-84
2022/09/11 00:26:41;;;;;;;31.23;14.80;;;;;;;8.81;61.82;100339.91;6246425;23;20349;-85
2022/09/11 00:29:08;;;;;;;34.53;15.00;;;;;;;8.61;62.59;100318.94;6248316;22;20420;-84
2022/09/11 00:31:35;;;;;;;;;;;;;;;8.71;63.04;100343.47;6246878;23;20307;-84
2022/09/11 00:34:01;;;;;;;34.67;14.90;;;;;;;8.46;63.27;100311.59;6247642;22;19907;-84
2022/09/11 00:36:30;;;;;;;35.60;15.18;;;;;;;8.51;63.04;100325.25;6246879;23;20326;-85
2022/09/11 00:38:58;;;;;;;34.33;15.73;;;;;;;8.52;63.16;100320.59;6246768;22;20369;-84
2022/09/11 00:41:27;;;;;;;38.97;15.02;;;;;;;8.56;62.88;100325.22;6270313;22;20341;-84
2022/09/11 00:44:27;;;;;;;32.83;15.55;;;;;;;8.46;63.53;100314.31;6277408;22;20337;-84
2022/09/11 00:46:59;;;;;;;44.00;15.70;;;;;;;8.55;63.54;100328.22;6250317;22;20429;-84
2022/09/11 00:49:42;;;;;;;32.28;15.50;;;;;;;8.55;63.60;100336.41;6277446;22;20354;-85
2022/09/11 00:52:33;;;;;;;40.15;16.65;;;;;;;8.36;63.71;100317.84;6226659;22;20326;-84
2022/09/11 00:55:11;;;;;;;41.35;16.40;;;;;;;8.34;64.20;100322.75;6277759;22;20449;-84
2022/09/11 00:57:44;;;;;;;39.03;16.85;;;;;;;8.47;64.07;100348.66;6251100;22;20012;-85
2022/09/11 01:00:12;;;;;;;34.88;15.13;;;;;;;8.36;64.13;100338.81;6277492;22;20315;-84
2022/09/11 01:02:43;;;;;;;33.63;15.30;;;;;;;8.12;64.14;100312.13;6250765;22;20319;-84
2022/09/11 01:05:11;;;;;;;40.88;15.77;;;;;;;8.20;63.81;100325.19;6225335;22;20085;-84
2022/09/11 01:07:40;;;;;;;34.05;14.27;;;;;;;8.24;64.46;100329.03;6278349;22;20430;-84
2022/09/11 01:10:09;;;;;;;36.47;14.57;;;;;;;8.27;64.19;100340.47;6277513;22;20380;-85
2022/09/11 01:13:20;;;;;;;34.60;15.23;;;;;;;8.30;64.27;100339.91;6277982;22;20317;-84
2022/09/11 01:16:12;;;;;;;31.65;15.15;;;;;;;8.24;65.17;100339.94;6250901;22;20306;-84
2022/09/11 01:19:02;;;;;;;40.85;15.23;;;;;;;8.05;64.31;100316.22;6250293;22;20318;-85
2022/09/11 01:22:03;;;;;;;41.28;16.42;;;;;;;8.11;65.10;100326.00;6250718;22;20423;-84
2022/09/11 01:24:52;;;;;;;31.50;14.93;;;;;;;8.17;64.31;100336.63;6171985;22;20333;-84
2022/09/11 01:27:40;;;;;;;36.88;15.80;;;;;;;8.10;64.46;100322.47;6277847;22;20386;-84
2022/09/11 01:30:12;;;;;;;38.35;14.82;;;;;;;8.13;63.69;100330.09;6250025;22;20446;-85
2022/09/11 01:33:10;;;;;;;38.25;15.75;;;;;;;8.06;64.42;100317.84;6225728;22;20299;-85
2022/09/11 01:36:14;;;;;;;36.35;15.48;;;;;;;8.13;64.27;100332.81;6155485;23;20009;-84
2022/09/11 01:38:50;;;;;;;35.73;15.80;;;;;;;8.12;65.02;100333.13;6144011;23;20460;-83
2022/09/11 01:41:32;;;;;;;35.05;15.45;;;;;;;8.01;64.80;100307.75;6153549;23;20407;-84
2022/09/11 01:44:07;;;;;;;30.35;15.20;;;;;;;8.14;64.06;100325.47;6130531;23;20061;-84
2022/09/11 01:46:41;;;;;;;34.85;15.73;;;;;;;8.03;64.65;100308.31;6129759;23;20053;-85
2022/09/11 01:49:11;;;;;;;43.05;15.35;;;;;;;8.10;63.39;100317.03;6129288;23;20080;-85
2022/09/11 01:51:40;;;;;;;38.55;16.05;;;;;;;8.05;64.09;100313.50;6154813;23;20353;-85
2022/09/11 01:54:21;;;;;;;87.80;17.63;;;;;;;8.03;64.55;100315.66;6105341;23;20326;-86
2022/09/11 01:56:59;;;;;;;41.40;15.88;;;;;;;7.89;64.87;100310.75;6154119;23;20301;-85
2022/09/11 01:59:34;;;;;;;37.42;14.55;;;;;;;7.78;64.10;100295.47;6105787;23;20345;-85
2022/09/11 02:02:06;;;;;;;42.28;15.95;;;;;;;7.89;64.13;100307.22;6153666;23;20416;-84
2022/09/11 02:04:55;;;;;;;30.95;14.02;;;;;;;7.93;64.24;100317.28;6130895;23;20483;-85
2022/09/11 02:07:38;;;;;;;28.92;14.48;;;;;;;7.86;64.18;100316.75;6128828;23;20358;-85
2022/09/11 02:10:17;;;;;;;31.55;14.23;;;;;;;7.89;64.28;100313.47;6104822;23;20378;-84
2022/09/11 02:12:57;;;;;;;35.83;13.88;;;;;;;7.84;63.76;100315.38;6186747;23;20323;-84
2022/09/11 02:15:32;;;;;;;34.38;16.00;;;;;;;7.66;63.96;100295.75;6217613;23;20390;-84
2022/09/11 02:18:08;;;;;;;37.40;15.00;;;;;;;7.65;64.53;100318.63;6214788;23;20418;-84
2022/09/11 02:20:35;;;;;;;32.22;14.73;;;;;;;7.50;64.74;100297.63;6214050;23;20017;-84
2022/09/11 02:23:02;;;;;;;34.10;16.13;;;;;;;7.56;64.44;100308.53;6215910;23;20382;-84
2022/09/11 02:25:29;;;;;;;40.58;17.63;;;;;;;7.60;64.10;100313.16;6214455;23;20366;-84
2022/09/11 02:27:59;;;;;;;40.58;16.63;;;;;;;7.64;64.43;100314.25;6214344;23;20296;-83
2022/09/11 02:30:26;;;;;;;36.83;17.27;;;;;;;7.62;65.01;100318.34;6215964;23;20333;-84
2022/09/11 02:32:56;;;;;;;37.47;15.73;;;;;;;7.73;64.40;100320.00;6191085;23;20429;-84
2022/09/11 02:35:29;;;;;;;42.85;16.05;;;;;;;7.54;64.52;100300.63;6217044;23;20008;-84
2022/09/11 02:38:19;;;;;;;39.00;15.82;;;;;;;7.73;63.81;100320.00;6216817;23;20358;-84
2022/09/11 02:41:13;;;;;;;46.55;15.38;;;;;;;7.57;64.84;100305.53;6230729;23;20036;-84
2022/09/11 02:44:14;;;;;;;37.88;15.30;;;;;;;7.51;65.23;100301.16;6247663;23;20411;-85
2022/09/11 02:47:04;;;;;;;38.35;14.98;;;;;;;7.46;64.46;100304.69;6248380;22;20319;-84
2022/09/11 02:50:14;;;;;;;47.95;16.80;;;;;;;7.39;65.28;100309.56;6247151;23;20394;-86
2022/09/11 02:52:46;;;;;;;34.45;15.55;;;;;;;7.34;66.31;100319.59;6222016;23;20311;-85
2022/09/11 02:55:49;;;;;;;47.53;21.33;;;;;;;7.34;66.05;100320.41;6249107;22;20017;-84
2022/09/11 02:58:31;;;;;;;58.65;22.30;;;;;;;7.23;65.80;100305.16;6246975;23;20327;-85
2022/09/11 03:01:02;;;;;;;55.17;21.88;;;;;;;7.27;66.19;100314.41;6247157;23;20414;-85
2022/09/11 03:03:39;;;;;;;57.17;23.02;;;;;;;7.32;66.29;100314.44;6246540;23;20426;-85
2022/09/11 03:06:18;;;;;;;62.25;22.33;;;;;;;7.34;66.03;100316.88;6249588;23;20414;-84
2022/09/11 03:08:46;;;;;;;54.00;22.08;;;;;;;7.32;66.53;100314.44;6222634;23;20343;-85
2022/09/11 03:11:16;;;;;;;46.50;21.23;;;;;;;6.98;67.11;100290.34;6231958;23;20370;-85
2022/09/11 03:13:45;;;;;;;44.03;20.25;;;;;;;7.03;67.13;100292.31;6257862;23;20389;-84
2022/09/11 03:16:14;;;;;;;43.00;19.33;;;;;;;7.11;66.92;100290.97;6232839;23;20008;-85
2022/09/11 03:18:41;;;;;;;47.03;20.30;;;;;;;7.07;67.31;100296.94;6250825;22;20008;-84
2022/09/11 03:21:10;;;;;;;;;;;;;;;7.19;66.79;100310.31;6223561;23;20456;-85
2022/09/11 03:23:37;;;;;;;39.05;18.52;;;;;;;7.16;66.98;100294.53;6247788;23;20206;-85
2022/09/11 03:26:04;;;;;;;62.42;18.27;;;;;;;7.21;67.18;100307.31;6246844;23;20304;-85
2022/09/11 03:28:32;;;;;;;46.75;18.73;;;;;;;7.21;66.31;100294.53;6247881;22;20399;-85
2022/09/11 03:31:08;;;;;;;43.78;18.27;;;;;;;7.35;66.24;100307.63;6246577;23;20350;-85
2022/09/11 03:33:36;;;;;;;38.95;19.00;;;;;;;7.19;66.79;100274.97;6247868;22;20334;-85
2022/09/11 03:36:03;;;;;;;39.88;18.88;;;;;;;7.17;67.44;100285.28;6246792;23;20311;-85
2022/09/11 03:38:30;;;;;;;;;;;;;;;7.35;67.15;100296.75;6247900;23;20330;-84
2022/09/11 03:40:58;;;;;;;40.13;16.58;;;;;;;7.28;67.51;100265.22;6261314;22;20264;-84
2022/09/11 03:43:25;;;;;;;35.25;15.90;;;;;;;7.33;67.21;100271.75;6277929;22;20393;-85
2022/09/11 03:45:52;;;;;;;39.60;16.85;;;;;;;7.43;66.97;100285.38;6225775;22;20334;-84
2022/09/11 03:48:28;;;;;;;34.90;16.27;;;;;;;7.39;66.95;100276.94;6253392;22;20314;-84
2022/09/11 03:50:55;;;;;;;32.08;15.98;;;;;;;7.52;67.15;100294.66;6250724;22;20397;-85
2022/09/11 03:53:22;;;;;;;33.65;14.95;;;;;;;7.41;66.81;100274.75;6225826;22;20338;-84
2022/09/11 03:55:49;;;;;;;30.02;15.18;;;;;;;7.41;67.29;100273.91;6251000;22;20402;-84
2022/09/11 03:58:18;;;;;;;30.63;14.38;;;;;;;7.47;67.32;100268.22;6250928;22;20361;-84
2022/09/11 04:00:46;;;;;;;30.05;15.63;;;;;;;7.56;66.89;100276.69;6279032;22;20355;-84
2022/09/11 04:03:15;;;;;;;29.95;15.30;;;;;;;7.74;67.14;100289.75;6278270;22;20384;-84
2022/09/11 04:05:56;;;;;;;30.48;15.55;;;;;;;7.74;66.99;100270.72;6278061;22;20054;-84
2022/09/11 04:08:23;;;;;;;33.72;15.48;;;;;;;7.66;66.46;100254.94;6277814;22;20357;-84
2022/09/11 04:10:57;;;;;;;27.27;14.52;;;;;;;7.81;66.84;100285.97;6225791;22;20348;-84
2022/09/11 04:13:35;;;;;;;31.00;15.52;;;;;;;7.70;67.12;100272.34;6278741;22;20469;-85
2022/09/11 04:16:06;;;;;;;34.63;15.43;;;;;;;7.80;67.83;100300.69;6251288;22;20305;-83
2022/09/11 04:18:37;;;;;;;31.52;14.30;;;;;;;7.69;67.74;100264.47;6250929;22;20310;-84
2022/09/11 04:21:13;;;;;;;30.85;15.90;;;;;;;7.80;67.40;100285.16;6200672;22;20315;-84
2022/09/11 04:26:39;;;;;;;33.28;15.63;;;;;;;7.91;66.81;100300.44;6253838;22;20429;-84
2022/09/11 04:29:21;;;;;;;39.78;16.08;;;;;;;7.85;67.23;100274.28;6296289;22;20372;-84
2022/09/11 04:31:48;;;;;;;34.85;15.90;;;;;;;7.98;67.10;100283.81;6265715;22;20365;-83
2022/09/11 04:34:27;;;;;;;27.85;15.32;;;;;;;8.09;66.86;100285.44;6295782;22;20341;-84
2022/09/11 04:36:55;;;;;;;31.75;15.18;;;;;;;8.07;66.90;100260.38;6275217;22;20322;-84
2022/09/11 04:39:22;;;;;;;27.30;15.05;;;;;;;8.28;66.55;100285.72;6255989;22;19995;-85
2022/09/11 04:41:49;;;;;;;34.00;15.23;;;;;;;8.40;66.41;100288.16;6285240;22;20425;-84
2022/09/11 04:44:16;;;;;;;;;;;;;;;8.52;66.92;100294.16;6231636;22;20321;-83
2022/09/11 04:46:44;;;;;;;28.20;14.82;;;;;;;8.51;67.06;100283.50;6291399;22;19917;-84
2022/09/11 04:55:07;;;;;;;34.03;15.68;;;;;;;8.77;66.73;100284.28;6227687;22;21078;-84
2022/09/11 04:57:33;;;;;;;29.00;14.60;;;;;;;8.74;65.39;100261.13;6216242;23;20047;-85
2022/09/11 05:00:00;;;;;;;31.20;15.20;;;;;;;8.97;65.77;100295.13;6198985;23;20016;-84
2022/09/11 05:02:27;;;;;;;32.92;15.18;;;;;;;9.11;65.89;100304.34;6198701;23;20509;-84
2022/09/11 05:04:53;;;;;;;33.25;16.30;;;;;;;9.10;65.39;100289.06;6172904;23;20020;-84
2022/09/11 05:07:19;;;;;;;30.23;15.43;;;;;;;9.22;65.51;100296.94;6197979;23;20115;-84
2022/09/11 05:09:48;;;;;;;30.15;14.80;;;;;;;9.16;65.03;100279.78;6198762;23;20091;-85
2022/09/11 05:12:18;;;;;;;35.28;15.27;;;;;;;9.35;65.16;100290.88;6191531;23;20020;-86
2022/09/11 05:15:00;;;;;;;30.75;15.10;;;;;;;9.24;64.09;100266.63;6234495;23;20053;-85
2022/09/11 05:17:47;;;;;;;41.25;16.33;;;;;;;9.42;64.82;100279.66;6250827;23;20020;-85
2022/09/11 05:20:18;;;;;;;44.67;18.02;;;;;;;9.62;65.79;100295.91;6218693;23;20638;-79
2022/09/11 05:22:45;;;;;;;42.72;16.80;;;;;;;9.61;66.12;100280.63;6218070;23;20020;-80
2022/09/11 05:25:12;;;;;;;36.22;15.90;;;;;;;9.75;64.57;100286.25;6249975;23;20020;-90
2022/09/11 05:27:38;;;;;;;29.98;16.45;;;;;;;9.83;64.81;100290.28;6218216;23;20020;-80
2022/09/11 05:30:08;;;;;;;34.50;16.25;;;;;;;9.93;65.23;100295.69;6220094;23;20020;-79
2022/09/11 05:32:34;;;;;;;28.25;14.50;;;;;;;10.00;65.46;100285.28;6217607;23;20024;-78
2022/09/11 05:35:01;;;;;;;33.22;15.27;;;;;;;10.09;65.26;100283.53;6194530;23;20370;-79
2022/09/11 05:37:28;;;;;;;33.60;14.27;;;;;;;10.13;64.28;100275.59;6248347;23;20074;-79
2022/09/11 05:39:55;;;;;;;25.45;13.60;;;;;;;10.31;63.94;100285.03;6220578;23;20086;-90
2022/09/11 05:42:23;;;;;;;25.23;13.10;;;;;;;10.40;64.13;100291.53;6244069;23;20023;-81
2022/09/11 05:44:53;;;;;;;21.92;12.27;;;;;;;10.49;62.79;100287.03;6244753;23;20147;-82
2022/09/11 05:47:21;;;;;;;27.08;12.85;;;;;;;10.63;62.85;100286.34;6216692;23;20366;-78
2022/09/11 05:49:50;;;;;;;20.33;10.65;;;;;;;10.76;62.23;100280.19;6216908;23;20043;-79
2022/09/11 05:52:16;;;;;;;26.20;11.63;;;;;;;10.90;61.81;100280.34;6243285;23;20027;-79
2022/09/11 05:54:43;;;;;;;29.75;10.88;;;;;;;11.07;62.76;100279.88;6247885;23;20039;-93
2022/09/11 05:57:11;;;;;;;24.58;10.93;;;;;;;11.25;62.07;100274.41;6225480;23;20000;-85
2022/09/11 05:59:37;;;;;;;37.65;10.73;;;;;;;11.38;60.42;100261.91;6251474;23;20560;-94
2022/09/11 06:02:04;;;;;;;19.70;10.10;;;;;;;11.46;58.78;100255.78;6198311;23;20012;-89
2022/09/11 06:04:53;;;;;;;24.33;9.95;;;;;;;11.70;59.77;100268.59;6247752;23;20031;-93
2022/09/11 06:07:21;;;;;;;22.60;8.88;;;;;;;11.84;58.64;100271.38;6246016;23;20015;-94
2022/09/11 06:09:51;;;;;;;17.02;8.23;;;;;;;11.90;56.56;100257.34;6251621;23;20064;-89
2022/09/11 06:12:17;;;;;;;21.65;8.45;;;;;;;12.04;57.82;100256.56;6218511;23;20051;-79
2022/09/11 06:14:48;;;;;;;16.05;7.45;;;;;;;12.17;56.53;100261.28;6245534;23;20091;-79
2022/09/11 06:19:46;;;;;;;23.25;6.75;;;;;;;12.44;55.52;100260.53;6246966;23;20027;-95
2022/09/11 06:22:13;;;;;;;21.13;7.03;;;;;;;12.59;53.99;100267.69;6218144;23;20016;-81
2022/09/11 06:24:42;;;;;;;17.40;6.50;;;;;;;12.73;53.67;100263.00;6216133;23;20012;-81
2022/09/11 06:27:09;;;;;;;33.20;8.45;;;;;;;12.84;54.45;100249.91;6242754;23;20421;-80
2022/09/11 06:29:38;;;;;;;16.90;6.40;;;;;;;13.01;52.75;100268.50;6242468;23;20018;-80
2022/09/11 06:32:05;;;;;;;29.27;8.33;;;;;;;13.12;52.08;100258.94;6215590;23;20103;-79
2022/09/11 06:34:32;;;;;;;19.60;5.80;;;;;;;13.29;52.83;100258.34;6215775;23;20035;-79
2022/09/11 06:37:03;;;;;;;14.23;6.95;;;;;;;13.32;51.17;100261.28;6216955;23;20070;-79
2022/09/11 06:39:30;;;;;;;13.27;6.43;;;;;;;13.43;51.17;100261.06;6215788;23;20023;-80
2022/09/11 06:41:58;;;;;;;14.07;6.25;;;;;;;13.46;51.28;100246.69;6243248;23;20078;-79
2022/09/11 06:44:29;;;;;;;11.75;5.38;;;;;;;13.49;50.12;100243.34;6243606;23;20016;-80
2022/09/11 06:46:58;;;;;;;11.50;5.75;;;;;;;13.54;50.27;100249.53;6244092;23;20024;-80
2022/09/11 06:49:25;;;;;;;14.17;6.20;;;;;;;13.57;49.46;100254.38;6245085;23;20031;-89
2022/09/11 06:52:10;;;;;;;10.73;5.82;;;;;;;13.66;49.63;100254.47;6243287;23;20055;-79
2022/09/11 06:54:37;;;;;;;8.77;5.30;;;;;;;13.67;49.67;100236.84;6192097;23;20091;-84
2022/09/11 06:57:08;;;;;;;12.23;5.20;;;;;;;13.75;50.23;100233.38;6215687;23;20027;-80
2022/09/11 06:59:35;;;;;;;9.80;4.82;;;;;;;13.85;49.09;100240.56;6244287;23;20043;-81
2022/09/11 07:02:01;;;;;;;11.20;5.40;;;;;;;14.00;49.04;100242.91;6220532;23;20070;-81
2022/09/11 07:04:28;;;;;;;10.27;5.32;;;;;;;14.07;48.99;100224.06;6218189;23;20028;-80
2022/09/11 07:06:55;;;;;;;11.35;4.97;;;;;;;14.24;49.70;100237.09;6247861;23;20027;-89
2022/09/11 07:09:23;;;;;;;14.25;5.25;;;;;;;14.21;49.15;100223.97;6227523;23;20042;-87
2022/09/11 07:11:56;;;;;;;23.35;7.00;;;;;;;14.33;49.45;100237.13;6250731;23;20784;-85
2022/09/11 07:14:25;;;;;;;28.25;6.68;;;;;;;14.22;48.58;100216.53;6222423;23;20162;-82
2022/09/11 07:16:59;;;;;;;12.20;5.68;;;;;;;14.31;47.44;100236.66;6219839;23;20016;-80
2022/09/11 07:19:26;;;;;;;22.60;5.90;;;;;;;14.34;48.09;100231.34;6219048;23;20385;-81
2022/09/11 07:21:53;;;;;;;24.42;5.55;;;;;;;14.32;48.09;100228.06;6194325;23;20011;-95
2022/09/11 07:24:23;;;;;;;11.75;5.47;;;;;;;14.42;47.72;100235.25;6245076;23;20012;-91
2022/09/11 07:26:50;;;;;;;26.37;5.90;;;;;;;14.49;48.56;100232.03;6220079;23;20492;-81
2022/09/11 07:29:27;;;;;;;17.73;5.60;;;;;;;14.62;48.46;100222.09;6247577;23;20481;-88
2022/09/11 07:31:56;;;;;;;10.27;5.38;;;;;;;14.66;47.48;100218.38;6247844;23;20020;-80
2022/09/11 07:34:22;;;;;;;17.13;5.53;;;;;;;14.82;47.59;100217.97;6223332;23;20068;-80
2022/09/11 07:36:50;;;;;;;16.35;6.70;;;;;;;14.85;46.70;100207.13;6252387;23;20016;-79
2022/09/11 07:39:18;;;;;;;21.10;5.72;;;;;;;14.83;46.18;100197.56;6248157;23;20027;-79
2022/09/11 07:42:07;;;;;;;18.63;5.03;;;;;;;14.93;46.28;100211.84;6244058;23;20035;-80
2022/09/11 07:44:34;;;;;;;26.08;4.90;;;;;;;14.95;46.54;100211.53;6249653;23;20020;-80
2022/09/11 07:47:01;;;;;;;21.10;4.65;;;;;;;15.01;46.03;100213.00;6248782;23;20429;-80
2022/09/11 07:49:30;;;;;;;10.27;4.72;;;;;;;15.06;45.82;100201.00;6249130;23;20035;-90
2022/09/11 07:51:58;;;;;;;19.48;4.68;;;;;;;15.00;44.71;100200.38;6249145;23;20020;-94
2022/09/11 07:54:36;;;;;;;8.07;3.90;;;;;;;14.96;44.66;100199.38;6223150;23;20024;-92
2022/09/11 07:57:04;;;;;;;7.60;4.45;;;;;;;14.98;44.81;100194.38;6247462;23;20023;-81
2022/09/11 07:59:31;;;;;;;9.48;3.70;;;;;;;15.12;44.90;100195.03;6219859;23;20016;-81
2022/09/11 08:01:58;;;;;;;10.57;4.78;;;;;;;15.32;45.95;100187.28;6221047;23;20012;-81
2022/09/11 08:04:24;;;;;;;17.48;6.95;;;;;;;15.45;45.25;100186.31;6222073;23;20067;-81
2022/09/11 08:06:52;;;;;;;15.30;6.50;;;;;;;15.56;44.58;100195.03;6222980;23;20062;-82
2022/09/11 08:09:32;;;;;;;19.65;4.43;;;;;;;15.62;43.99;100193.75;6197658;23;20012;-82
2022/09/11 08:12:02;;;;;;;14.65;4.00;;;;;;;15.74;43.96;100185.69;6249096;23;20067;-81
2022/09/11 08:14:31;;;;;;;13.68;5.25;;;;;;;15.83;44.93;100185.69;6222340;23;20016;-94
2022/09/11 08:17:06;;;;;;;11.90;4.13;;;;;;;15.92;42.73;100183.69;6220410;23;20335;-81
2022/09/11 08:19:35;;;;;;;13.48;3.55;;;;;;;15.91;42.95;100184.84;6222740;23;20020;-80
2022/09/11 08:22:02;;;;;;;31.92;4.25;;;;;;;15.84;42.28;100162.47;6220243;23;20065;-93
2022/09/11 08:24:34;;;;;;;14.32;4.03;;;;;;;15.90;41.89;100177.72;6221570;23;20476;-82
2022/09/11 08:27:04;;;;;;;24.50;4.45;;;;;;;15.91;41.52;100180.13;6219985;23;20335;-80
2022/09/11 08:29:31;;;;;;;29.02;4.18;;;;;;;15.97;41.04;100173.31;6247929;23;20020;-94
2022/09/11 08:31:59;;;;;;;15.98;4.18;;;;;;;16.03;41.94;100168.44;6250052;23;20042;-81
2022/09/11 08:34:27;;;;;;;24.02;4.40;;;;;;;16.01;40.79;100164.38;6251236;23;20108;-81
2022/09/11 08:36:56;;;;;;;20.30;4.05;;;;;;;16.03;41.12;100146.38;6254283;23;20004;-80
2022/09/11 08:39:24;;;;;;;9.20;3.25;;;;;;;16.20;41.14;100156.53;6228618;23;20107;-82
2022/09/11 08:42:05;;;;;;;7.82;3.55;;;;;;;16.23;40.29;100161.41;6254716;23;20016;-86
2022/09/11 08:44:36;;;;;;;;;;;;;;;16.34;40.27;100168.16;6252409;23;20016;-90
2022/09/11 08:47:21;;;;;;;24.10;4.03;;;;;;;16.32;40.12;100133.75;6247827;23;19919;-80
2022/09/11 08:50:14;;;;;;;12.10;3.95;;;;;;;16.46;38.85;100153.66;6222656;23;20042;-88
2022/09/11 08:52:43;;;;;;;9.95;4.10;;;;;;;16.54;38.68;100150.03;6222871;23;20051;-91
2022/09/11 08:55:21;;;;;;;21.90;4.05;;;;;;;16.66;39.17;100152.91;6248447;23;20024;-84
2022/09/11 08:57:53;;;;;;;10.35;4.13;;;;;;;16.67;39.13;100148.19;6247944;23;20492;-83
2022/09/11 09:00:35;;;;;;;11.63;3.63;;;;;;;16.74;38.88;100140.19;6222161;23;20027;-80
2022/09/11 09:03:39;;;;;;;10.00;3.88;;;;;;;16.80;39.07;100141.66;6220365;23;20027;-83
2022/09/11 09:06:20;;;;;;;;;;;;;;;16.83;38.70;100154.00;6248831;23;20024;-84
2022/09/11 09:08:56;;;;;;;11.82;3.47;;;;;;;16.85;38.87;100155.28;6247745;23;19921;-83
2022/09/11 09:11:28;;;;;;;9.38;3.90;;;;;;;16.90;39.03;100137.69;6222001;23;20020;-86
2022/09/11 09:14:29;;;;;;;53.10;5.93;;;;;;;16.91;38.78;100142.06;6251305;23;20016;-81
2022/09/11 09:17:00;;;;;;;23.92;4.60;;;;;;;17.03;38.42;100146.88;6251420;23;20270;-84
2022/09/11 09:19:41;;;;;;;11.90;4.65;;;;;;;17.08;38.57;100146.66;6196533;23;20047;-86
2022/09/11 09:22:36;;;;;;;9.18;4.00;;;;;;;16.98;38.43;100142.34;6223841;23;20016;-80
2022/09/11 09:25:10;;;;;;;17.48;4.15;;;;;;;16.93;38.08;100136.22;6224268;23;20073;-86
2022/09/11 09:27:49;;;;;;;10.90;3.95;;;;;;;16.92;38.07;100129.88;6254238;23;20016;-87
2022/09/11 09:30:26;;;;;;;11.43;3.80;;;;;;;16.88;38.80;100121.44;6176658;23;20023;-87
2022/09/11 09:33:15;;;;;;;6.03;3.53;;;;;;;17.12;38.51;100144.84;6195922;23;20070;-84
2022/09/11 09:35:45;;;;;;;6.80;3.17;;;;;;;17.06;37.85;100135.94;6250562;23;20003;-85
2022/09/11 09:38:26;;;;;;;8.63;3.75;;;;;;;16.94;37.96;100116.53;6223349;23;20024;-84
2022/09/11 09:41:10;;;;;;;7.10;3.60;;;;;;;17.13;37.58;100152.00;6253559;23;20027;-85
2022/09/11 09:44:00;;;;;;;6.25;3.60;;;;;;;17.13;37.62;100138.97;6223679;23;20495;-89
2022/09/11 09:46:45;;;;;;;16.70;3.90;;;;;;;17.04;38.06;100120.84;6199410;23;20028;-89
2022/09/11 09:49:18;;;;;;;11.48;4.32;;;;;;;16.92;37.58;100121.59;6202686;23;20012;-89
2022/09/11 09:51:46;;;;;;;9.50;3.53;;;;;;;16.82;37.95;100102.63;6201155;23;20083;-91
2022/09/11 09:54:20;;;;;;;41.08;4.50;;;;;;;16.92;38.67;100116.09;6208568;23;20116;-88
2022/09/11 09:56:55;;;;;;;15.38;5.00;;;;;;;16.82;37.93;100121.97;6203597;23;20409;-90
2022/09/11 09:59:31;;;;;;;24.48;5.53;;;;;;;16.94;37.86;100135.06;6223612;23;20394;-89
2022/09/11 10:01:57;;;;;;;8.50;4.53;;;;;;;16.93;37.79;100137.03;6198020;23;20021;-83
2022/09/11 10:04:26;;;;;;;32.67;4.05;;;;;;;16.62;37.97;100107.78;6219559;23;20020;-86
2022/09/11 10:07:10;;;;;;;9.32;4.00;;;;;;;16.96;38.65;100143.84;6222140;23;20013;-85
2022/09/11 10:09:58;;;;;;;12.85;4.60;;;;;;;16.91;38.89;100131.00;6225432;23;20496;-87
2022/09/11 10:12:27;;;;;;;29.48;6.40;;;;;;;16.94;38.45;100140.59;6228602;23;20076;-86
2022/09/11 10:15:19;;;;;;;9.70;4.80;;;;;;;16.88;37.94;100126.16;6221183;23;20012;-84
2022/09/11 10:20:22;;;;;;;16.90;7.07;;;;;;;17.16;38.25;100147.75;6225142;23;20462;-87
2022/09/11 10:22:50;;;;;;;18.45;7.82;;;;;;;16.99;38.00;100130.16;6219273;23;20036;-92
2022/09/11 10:25:25;;;;;;;14.18;7.80;;;;;;;16.88;37.99;100095.78;6174620;23;20021;-89
2022/09/11 10:28:18;;;;;;;23.70;5.55;;;;;;;17.11;37.62;100144.03;6221727;23;20023;-90
2022/09/11 10:31:01;;;;;;;14.25;4.68;;;;;;;17.07;37.96;100134.78;6193495;23;20023;-91
2022/09/11 10:33:32;;;;;;;12.07;4.93;;;;;;;16.96;38.03;100117.03;6216910;23;20028;-89
2022/09/11 10:36:02;;;;;;;8.75;4.65;;;;;;;17.12;37.72;100131.84;6224839;23;20070;-88
2022/09/11 10:38:53;;;;;;;21.98;6.10;;;;;;;17.18;39.01;100135.19;6230348;23;20027;-87
2022/09/11 10:41:27;;;;;;;22.90;8.68;;;;;;;17.02;39.59;100101.88;6228196;23;20032;-88
2022/09/11 10:44:09;;;;;;;25.00;6.88;;;;;;;17.24;38.11;100130.28;6223798;23;20020;-92
2022/09/11 10:46:44;;;;;;;17.90;7.32;;;;;;;17.24;38.19;100130.28;6219991;23;20055;-84
2022/09/11 10:49:22;;;;;;;17.67;6.20;;;;;;;17.28;38.93;100123.72;6222321;23;20020;-84
2022/09/11 10:52:04;;;;;;;10.20;5.88;;;;;;;17.30;38.25;100126.19;6224238;23;20020;-84
2022/09/11 10:54:52;;;;;;;14.77;6.03;;;;;;;17.37;39.25;100120.91;6221496;23;20043;-92
2022/09/11 10:57:29;;;;;;;85.35;7.72;;;;;;;17.27;38.49;100113.03;6238964;23;20090;-86
2022/09/11 11:00:21;;;;;;;28.27;9.07;;;;;;;17.33;38.27;100114.44;6245578;23;20103;-90
2022/09/11 11:02:54;;;;;;;42.85;9.93;;;;;;;17.29;39.27;100103.25;6220991;23;20024;-82
2022/09/11 11:05:26;;;;;;;23.98;9.57;;;;;;;17.32;39.31;100102.59;6247272;23;20020;-83
2022/09/11 11:08:14;;;;;;;21.50;9.70;;;;;;;17.47;40.00;100097.56;6248360;23;20361;-93
2022/09/11 11:10:41;;;;;;;25.95;12.75;;;;;;;17.51;38.79;100093.78;6220143;23;20127;-89
2022/09/11 11:13:13;;;;;;;55.65;19.02;;;;;;;17.55;38.18;100091.97;6247126;23;20012;-83
2022/09/11 11:16:01;;;;;;;36.85;15.50;;;;;;;17.62;39.61;100096.94;6223452;23;20088;-85
2022/09/11 11:18:44;;;;;;;33.95;10.57;;;;;;;17.73;39.85;100092.56;6254477;23;20020;-94
2022/09/11 11:21:27;;;;;;;18.13;6.63;;;;;;;17.73;37.62;100091.78;6227499;23;20452;-84
2022/09/11 11:24:27;;;;;;;23.60;8.82;;;;;;;17.65;39.68;100073.31;6227524;23;20390;-85
2022/09/11 11:27:26;;;;;;;12.93;5.95;;;;;;;17.79;38.65;100084.91;6250151;23;20063;-92
2022/09/11 11:30:07;;;;;;;11.40;5.40;;;;;;;17.78;38.39;100088.81;6222457;23;20091;-87
2022/09/11 11:32:52;;;;;;;26.35;7.43;;;;;;;17.84;37.85;100079.94;6199756;23;20016;-84
2022/09/11 11:35:28;;;;;;;33.30;9.63;;;;;;;17.93;37.87;100092.88;6203191;23;20031;-90
2022/09/11 11:38:39;;;;;;;25.52;6.70;;;;;;;17.99;38.30;100081.25;6229818;23;20032;-84
2022/09/11 11:41:21;;;;;;;27.90;4.60;;;;;;;18.03;37.59;100070.31;6261614;22;20046;-82
2022/09/11 11:44:03;;;;;;;22.45;6.00;;;;;;;18.13;37.56;100069.03;6253716;23;20462;-85
2022/09/11 11:46:37;;;;;;;12.32;5.03;;;;;;;18.14;36.02;100074.22;6259051;23;20016;-83
2022/09/11 11:49:34;;;;;;;16.20;5.88;;;;;;;17.95;37.47;100027.78;6251603;23;20020;-81
2022/09/11 11:52:36;;;;;;;11.18;3.72;;;;;;;18.24;36.91;100059.91;6256280;23;20020;-93
2022/09/11 11:55:22;;;;;;;13.45;4.80;;;;;;;18.13;38.11;100020.03;6246380;23;20595;-84
2022/09/11 11:58:03;;;;;;;;;;;;;;;18.41;38.41;100058.06;6219909;23;20020;-87
2022/09/11 12:00:37;;;;;;;23.05;6.82;;;;;;;18.30;36.85;100041.94;6217672;23;20402;-84
2022/09/11 12:03:38;;;;;;;31.67;7.03;;;;;;;18.21;37.09;100026.59;6223015;23;20080;-87
2022/09/11 12:06:09;;;;;;;11.68;5.00;;;;;;;18.28;37.33;100046.22;6190991;23;20147;-86
2022/09/11 12:08:45;;;;;;;10.30;3.30;;;;;;;18.26;37.78;100043.78;6193765;23;20023;-88